createdAt,value
2019-05-12T00:01:19.735Z,96.00
2019-05-12T00:04:28.279Z,96.00
2019-05-12T00:07:38.200Z,96.50
2019-05-12T00:10:47.863Z,96.40
2019-05-12T00:14:08.653Z,96.50
2019-05-12T00:17:28.447Z,96.30
2019-05-12T00:20:38.609Z,96.70
2019-05-12T00:24:05.085Z,96.60
2019-05-12T00:27:17.833Z,96.80
2019-05-12T00:30:42.507Z,97.10
2019-05-12T00:33:51.013Z,97.00
2019-05-12T00:36:59.862Z,96.90
2019-05-12T00:40:09.439Z,97.00
2019-05-12T00:43:18.841Z,97.20
2019-05-12T00:46:27.941Z,97.00
2019-05-12T00:49:37.907Z,97.10
2019-05-12T00:52:48.836Z,97.10
2019-05-12T00:56:08.490Z,96.80
2019-05-12T00:59:19.102Z,97.00
2019-05-12T01:02:28.663Z,96.90
2019-05-12T01:05:38.373Z,96.80
2019-05-12T01:08:48.384Z,96.90
2019-05-12T01:11:58.781Z,97.00
2019-05-12T01:15:08.365Z,97.00
2019-05-12T01:18:28.050Z,97.00
2019-05-12T01:21:37.739Z,97.00
2019-05-12T01:24:57.824Z,97.00
2019-05-12T01:28:08.105Z,96.80
2019-05-12T01:31:18.671Z,97.10
2019-05-12T01:34:27.886Z,97.20
2019-05-12T01:37:38.305Z,97.10
2019-05-12T01:40:47.884Z,97.30
2019-05-12T01:43:58.439Z,97.30
2019-05-12T01:47:08.374Z,97.30
2019-05-12T01:50:28.252Z,97.40
2019-05-12T01:53:37.884Z,97.60
2019-05-12T01:56:58.634Z,97.40
2019-05-12T02:00:11.420Z,97.30
2019-05-12T02:03:20.076Z,97.30
2019-05-12T02:06:29.284Z,97.60
2019-05-12T02:09:38.676Z,97.80
2019-05-12T02:12:59.466Z,97.70
2019-05-12T02:16:08.337Z,98.00
2019-05-12T02:19:17.857Z,98.20
2019-05-12T02:22:27.862Z,98.10
2019-05-12T02:25:48.345Z,98.10
2019-05-12T02:28:58.609Z,98.10
2019-05-12T02:32:07.364Z,98.00
2019-05-12T02:35:16.411Z,97.80
2019-05-12T02:38:25.368Z,98.20
2019-05-12T02:41:44.940Z,98.00
2019-05-12T02:44:55.175Z,98.40
2019-05-12T02:48:05.218Z,98.50
2019-05-12T02:51:25.073Z,98.40
2019-05-12T02:54:50.088Z,98.60
2019-05-12T02:57:45.993Z,98.40
2019-05-12T03:00:56.211Z,98.30
2019-05-12T03:04:16.727Z,98.50
2019-05-12T03:07:28.176Z,98.20
2019-05-12T03:10:38.461Z,98.20
2019-05-12T03:13:46.969Z,98.50
2019-05-12T03:16:55.582Z,98.50
2019-05-12T03:20:15.272Z,98.40
2019-05-12T03:23:24.912Z,98.40
2019-05-12T03:26:45.019Z,98.50
2019-05-12T03:29:55.206Z,98.30
2019-05-12T03:33:09.274Z,98.50
2019-05-12T03:36:18.093Z,98.40
2019-05-12T03:39:25.163Z,98.30
2019-05-12T03:42:35.424Z,98.40
2019-05-12T03:45:45.431Z,98.50
2019-05-12T03:48:55.592Z,98.50
2019-05-12T03:52:15.472Z,98.60
2019-05-12T03:55:35.512Z,98.40
2019-05-12T03:58:34.969Z,98.20
2019-05-12T04:01:45.090Z,97.80
2019-05-12T04:04:55.459Z,98.10
2019-05-12T04:08:05.392Z,98.20
2019-05-12T04:11:14.883Z,98.20
2019-05-12T04:14:25.287Z,98.20
2019-05-12T04:17:35.007Z,98.50
2019-05-12T04:20:45.194Z,98.00
2019-05-12T04:23:55.035Z,98.30
2019-05-12T04:27:05.384Z,98.30
2019-05-12T04:30:14.723Z,98.20
2019-05-12T04:33:34.692Z,98.10
2019-05-12T04:36:44.966Z,98.00
2019-05-12T04:39:55.453Z,97.70
2019-05-12T04:43:05.941Z,97.70
2019-05-12T04:46:14.778Z,97.80
2019-05-12T04:49:25.105Z,97.90
2019-05-12T04:52:35.170Z,97.60
2019-05-12T04:55:44.737Z,97.50
2019-05-12T04:58:54.548Z,97.60
2019-05-12T05:02:05.472Z,97.40
2019-05-12T05:05:15.745Z,97.50
2019-05-12T05:08:24.613Z,97.60
2019-05-12T05:11:34.380Z,97.40
2019-05-12T05:14:44.565Z,97.20
2019-05-12T05:17:54.507Z,97.10
2019-05-12T05:21:04.664Z,96.50
2019-05-12T05:24:14.220Z,96.40
2019-05-12T05:27:24.734Z,95.90
2019-05-12T05:30:44.271Z,95.50
2019-05-12T05:33:53.668Z,94.90
2019-05-12T05:37:02.635Z,93.90
2019-05-12T05:40:13.883Z,93.10
2019-05-12T05:43:24.024Z,92.60
2019-05-12T05:46:33.679Z,92.10
2019-05-12T05:49:43.412Z,91.20
2019-05-12T05:52:54.131Z,90.30
2019-05-12T05:56:04.045Z,90.20
2019-05-12T05:59:15.017Z,89.90
2019-05-12T06:02:32.083Z,88.80
2019-05-12T06:05:34.642Z,87.40
2019-05-12T06:08:44.554Z,87.10
2019-05-12T06:11:54.197Z,85.00
2019-05-12T06:15:13.648Z,84.50
2019-05-12T06:18:23.932Z,83.00
2019-05-12T06:21:36.352Z,82.00
2019-05-12T06:24:54.863Z,81.60
2019-05-12T06:28:04.111Z,80.80
2019-05-12T06:31:13.776Z,81.90
2019-05-12T06:34:23.873Z,80.70
2019-05-12T06:37:33.850Z,82.40
2019-05-12T06:40:45.410Z,81.80
2019-05-12T06:43:54.201Z,82.30
2019-05-12T06:47:14.351Z,81.20
2019-05-12T06:50:23.768Z,82.50
2019-05-12T06:53:33.651Z,83.10
2019-05-12T06:56:43.541Z,84.60
2019-05-12T07:00:04.570Z,84.70
2019-05-12T07:03:14.271Z,84.40
2019-05-12T07:06:24.739Z,84.70
2019-05-12T07:09:36.644Z,85.70
2019-05-12T07:12:55.975Z,84.40
2019-05-12T07:15:55.691Z,85.50
2019-05-12T07:19:07.741Z,85.80
2019-05-12T07:22:22.084Z,84.00
2019-05-12T07:25:31.282Z,84.70
2019-05-12T07:28:40.121Z,84.60
2019-05-12T07:31:45.565Z,83.80
2019-05-12T07:34:54.516Z,83.60
2019-05-12T07:38:04.730Z,83.70
2019-05-12T07:41:15.015Z,83.70
2019-05-12T07:44:34.222Z,83.40
2019-05-12T07:47:37.738Z,83.20
2019-05-12T07:50:50.270Z,81.10
2019-05-12T07:53:58.979Z,79.00
2019-05-12T07:57:12.010Z,79.40
2019-05-12T08:00:28.782Z,77.10
2019-05-12T08:03:38.462Z,76.00
2019-05-12T08:06:47.121Z,76.10
2019-05-12T08:09:55.766Z,75.20
2019-05-12T08:13:14.947Z,77.00
2019-05-12T08:16:30.207Z,76.10
2019-05-12T08:19:35.242Z,76.60
2019-05-12T08:22:43.949Z,74.40
2019-05-12T08:25:53.992Z,75.10
2019-05-12T08:29:04.223Z,74.00
2019-05-12T08:32:16.035Z,74.60
2019-05-12T08:35:29.324Z,71.70
2019-05-12T08:38:33.786Z,72.70
2019-05-12T08:41:44.397Z,68.20
2019-05-12T08:44:54.239Z,66.40
2019-05-12T08:48:03.824Z,67.60
2019-05-12T08:51:14.528Z,66.70
2019-05-12T08:54:23.371Z,67.10
2019-05-12T08:57:40.544Z,66.30
2019-05-12T09:00:50.103Z,67.30
2019-05-12T09:03:53.429Z,66.30
2019-05-12T09:07:13.881Z,66.60
2019-05-12T09:10:34.390Z,66.60
2019-05-12T09:13:43.495Z,66.90
2019-05-12T09:16:53.646Z,66.10
2019-05-12T09:20:08.146Z,66.40
2019-05-12T09:23:13.645Z,65.90
2019-05-12T09:26:34.385Z,67.90
2019-05-12T09:29:43.552Z,67.70
2019-05-12T09:32:55.967Z,64.10
2019-05-12T09:36:04.286Z,63.80
2019-05-12T09:39:23.529Z,62.60
2019-05-12T09:42:33.388Z,61.60
2019-05-12T09:45:52.641Z,60.20
2019-05-12T09:48:55.050Z,57.10
2019-05-12T09:52:03.667Z,58.20
2019-05-12T09:55:14.725Z,58.30
2019-05-12T09:58:25.733Z,58.70
2019-05-12T10:01:35.314Z,58.80
2019-05-12T10:04:43.833Z,57.30
2019-05-12T10:07:53.610Z,58.00
2019-05-12T10:11:16.447Z,58.90
2019-05-12T10:14:23.540Z,56.30
2019-05-12T10:17:34.015Z,55.80
2019-05-12T10:20:44.132Z,56.80
2019-05-12T10:24:05.060Z,55.70
2019-05-12T10:27:13.868Z,52.90
2019-05-12T10:30:23.317Z,54.30
2019-05-12T10:33:33.677Z,55.80
2019-05-12T10:36:53.788Z,56.90
2019-05-12T10:40:03.751Z,55.00
2019-05-12T10:43:12.452Z,54.10
2019-05-12T10:46:26.760Z,54.50
2019-05-12T10:49:33.599Z,55.20
2019-05-12T10:52:43.880Z,56.90
2019-05-12T10:55:54.052Z,58.50
2019-05-12T10:59:04.281Z,56.90
2019-05-12T11:02:11.247Z,53.00
2019-05-12T11:05:23.200Z,55.00
2019-05-12T11:08:30.537Z,56.00
2019-05-12T11:11:42.622Z,53.20
2019-05-12T11:14:49.696Z,52.50
2019-05-12T11:18:10.582Z,55.10
2019-05-12T11:21:19.113Z,55.00
2019-05-12T11:24:27.737Z,53.60
2019-05-12T11:27:36.426Z,52.70
2019-05-12T11:30:44.983Z,54.50
2019-05-12T11:33:54.103Z,56.00
2019-05-12T11:37:03.456Z,54.30
2019-05-12T11:40:23.909Z,54.30
2019-05-12T11:43:33.789Z,54.60
2019-05-12T11:46:44.131Z,53.10
2019-05-12T11:49:53.674Z,53.90
2019-05-12T11:53:04.430Z,55.70
2019-05-12T11:56:24.306Z,55.00
2019-05-12T11:59:34.130Z,54.30
2019-05-12T12:02:53.083Z,52.30
2019-05-12T12:06:01.459Z,50.40
2019-05-12T12:09:15.509Z,50.10
2019-05-12T12:12:20.536Z,51.70
2019-05-12T12:15:30.304Z,51.30
2019-05-12T12:18:54.565Z,50.70
2019-05-12T12:21:59.562Z,51.30
2019-05-12T12:25:11.064Z,52.00
2019-05-12T12:28:18.611Z,53.30
2019-05-12T12:31:29.756Z,52.40
2019-05-12T12:34:39.105Z,52.10
2019-05-12T12:37:47.757Z,50.60
2019-05-12T12:40:56.557Z,48.50
2019-05-12T12:44:05.314Z,47.80
2019-05-12T12:47:14.086Z,46.70
2019-05-12T12:50:26.485Z,47.10
2019-05-12T12:53:34.395Z,43.40
2019-05-12T12:56:53.921Z,43.50
2019-05-12T13:00:03.819Z,43.40
2019-05-12T13:03:27.721Z,43.00
2019-05-12T13:06:34.598Z,42.10
2019-05-12T13:09:44.120Z,42.70
2019-05-12T13:13:04.323Z,43.50
2019-05-12T13:16:13.361Z,44.00
2019-05-12T13:19:23.771Z,44.10
2019-05-12T13:22:33.717Z,44.60
2019-05-12T13:25:50.433Z,46.50
2019-05-12T13:28:53.588Z,46.20
2019-05-12T13:32:03.434Z,44.70
2019-05-12T13:35:16.540Z,44.50
2019-05-12T13:38:23.765Z,46.40
2019-05-12T13:41:34.213Z,47.10
2019-05-12T13:44:43.632Z,47.80
2019-05-12T13:47:53.379Z,49.00
2019-05-12T13:51:10.403Z,49.40
2019-05-12T13:54:14.384Z,50.50
2019-05-12T13:57:23.651Z,49.60
2019-05-12T14:00:33.639Z,49.10
2019-05-12T14:03:46.277Z,49.10
2019-05-12T14:06:53.292Z,50.40
2019-05-12T14:10:03.641Z,50.70
2019-05-12T14:13:14.084Z,50.40
2019-05-12T14:16:24.775Z,50.60
2019-05-12T14:19:35.557Z,50.70
2019-05-12T14:22:44.728Z,52.00
2019-05-12T14:25:54.386Z,53.50
2019-05-12T14:29:03.951Z,54.40
2019-05-12T14:32:17.484Z,53.70
2019-05-12T14:35:23.280Z,53.30
2019-05-12T14:38:36.419Z,53.70
2019-05-12T14:41:55.210Z,52.50
2019-05-12T14:45:04.716Z,54.10
2019-05-12T14:48:13.833Z,54.50
2019-05-12T14:51:24.573Z,53.30
2019-05-12T14:54:34.310Z,53.90
2019-05-12T14:57:43.073Z,54.40
2019-05-12T15:00:56.435Z,54.20
2019-05-12T15:04:13.288Z,52.20
2019-05-12T15:07:23.667Z,52.80
2019-05-12T15:10:33.784Z,52.70
2019-05-12T15:13:43.684Z,52.60
2019-05-12T15:17:03.707Z,52.60
2019-05-12T15:20:13.769Z,52.70
2019-05-12T15:23:25.875Z,53.00
2019-05-12T15:26:33.148Z,53.50
2019-05-12T15:29:41.742Z,54.20
2019-05-12T15:32:50.274Z,54.80
2019-05-12T15:36:09.141Z,54.20
2019-05-12T15:39:17.747Z,53.80
2019-05-12T15:42:26.355Z,53.70
2019-05-12T15:45:34.951Z,53.80
2019-05-12T15:48:44.603Z,53.30
2019-05-12T15:52:03.750Z,53.30
2019-05-12T15:55:13.738Z,53.00
2019-05-12T15:58:24.552Z,54.20
2019-05-12T16:01:33.458Z,54.40
2019-05-12T16:04:43.078Z,53.30
2019-05-12T16:07:54.028Z,52.20
2019-05-12T16:11:05.007Z,52.20
2019-05-12T16:14:13.024Z,52.70
2019-05-12T16:17:25.026Z,52.60
2019-05-12T16:20:33.433Z,52.00
2019-05-12T16:23:44.542Z,51.30
2019-05-12T16:26:53.215Z,50.40
2019-05-12T16:30:04.563Z,51.70
2019-05-12T16:33:20.485Z,52.50
2019-05-12T16:36:22.560Z,52.50
2019-05-12T16:39:37.013Z,52.60
2019-05-12T16:42:48.145Z,52.80
2019-05-12T16:45:53.619Z,52.60
2019-05-12T16:49:03.358Z,53.20
2019-05-12T16:52:24.254Z,53.90
2019-05-12T16:55:44.834Z,54.40
2019-05-12T16:58:43.385Z,54.60
2019-05-12T17:02:05.528Z,55.60
2019-05-12T17:05:24.817Z,55.70
2019-05-12T17:08:34.414Z,56.20
2019-05-12T17:11:52.451Z,55.80
2019-05-12T17:14:53.556Z,55.90
2019-05-12T17:18:04.427Z,55.80
2019-05-12T17:21:14.356Z,55.70
2019-05-12T17:24:34.431Z,55.40
2019-05-12T17:27:44.771Z,55.90
2019-05-12T17:30:54.334Z,57.00
2019-05-12T17:34:06.369Z,56.20
2019-05-12T17:37:14.637Z,56.30
2019-05-12T17:40:24.325Z,56.10
2019-05-12T17:43:33.838Z,56.70
2019-05-12T17:46:54.081Z,57.30
2019-05-12T17:50:06.773Z,56.70
2019-05-12T17:53:13.812Z,57.50
2019-05-12T17:56:25.283Z,59.10
2019-05-12T17:59:33.919Z,60.80
2019-05-12T18:02:43.902Z,61.70
2019-05-12T18:05:53.473Z,61.90
2019-05-12T18:09:04.026Z,61.70
2019-05-12T18:12:13.852Z,60.50
2019-05-12T18:15:32.203Z,61.10
2019-05-12T18:18:38.011Z,59.90
2019-05-12T18:21:45.089Z,60.00
2019-05-12T18:24:54.301Z,57.20
2019-05-12T18:28:03.781Z,57.80
2019-05-12T18:31:25.189Z,59.80
2019-05-12T18:34:34.006Z,60.00
2019-05-12T18:37:42.853Z,61.60
2019-05-12T18:40:51.393Z,62.20
2019-05-12T18:43:58.998Z,64.30
2019-05-12T18:47:07.538Z,63.40
2019-05-12T18:50:20.632Z,63.70
2019-05-12T18:53:31.535Z,62.80
2019-05-12T18:56:37.143Z,62.90
2019-05-12T18:59:54.332Z,63.40
2019-05-12T19:02:59.625Z,63.70
2019-05-12T19:06:16.371Z,63.40
2019-05-12T19:09:25.135Z,62.80
2019-05-12T19:12:35.666Z,63.00
2019-05-12T19:15:44.182Z,63.60
2019-05-12T19:18:55.402Z,64.50
2019-05-12T19:22:09.082Z,65.40
2019-05-12T19:25:19.161Z,65.90
2019-05-12T19:28:26.750Z,66.80
2019-05-12T19:31:36.683Z,67.70
2019-05-12T19:34:56.015Z,68.80
2019-05-12T19:38:04.597Z,69.20
2019-05-12T19:41:13.967Z,69.80
2019-05-12T19:44:34.284Z,70.50
2019-05-12T19:47:44.291Z,71.30
2019-05-12T19:50:56.965Z,71.90
2019-05-12T19:54:03.710Z,72.90
2019-05-12T19:57:21.650Z,74.30
2019-05-12T20:00:22.473Z,75.20
2019-05-12T20:03:33.370Z,76.60
2019-05-12T20:06:43.817Z,77.40
2019-05-12T20:09:55.842Z,78.20
2019-05-12T20:13:13.638Z,79.30
2019-05-12T20:16:29.742Z,80.80
2019-05-12T20:19:34.089Z,82.30
2019-05-12T20:22:44.134Z,82.80
2019-05-12T20:25:53.518Z,83.80
2019-05-12T20:29:04.601Z,84.90
2019-05-12T20:32:13.961Z,85.60
2019-05-12T20:35:24.497Z,86.50
2019-05-12T20:38:34.410Z,87.10
2019-05-12T20:41:44.300Z,87.90
2019-05-12T20:44:57.990Z,88.30
2019-05-12T20:48:04.111Z,89.60
2019-05-12T20:51:15.316Z,89.70
2019-05-12T20:54:23.905Z,90.10
2019-05-12T20:57:34.543Z,90.30
2019-05-12T21:00:45.420Z,90.50
2019-05-12T21:03:53.188Z,90.60
2019-05-12T21:07:04.392Z,90.90
2019-05-12T21:10:14.398Z,91.20
2019-05-12T21:13:27.366Z,91.50
2019-05-12T21:16:44.920Z,91.60
2019-05-12T21:19:56.835Z,91.80
2019-05-12T21:23:03.483Z,91.70
2019-05-12T21:26:12.018Z,92.00
2019-05-12T21:29:25.541Z,92.00
2019-05-12T21:32:31.017Z,92.20
2019-05-12T21:35:43.141Z,92.40
2019-05-12T21:38:50.063Z,92.40
2019-05-12T21:41:58.712Z,92.70
2019-05-12T21:45:08.552Z,93.00
2019-05-12T21:48:23.610Z,93.00
2019-05-12T21:51:27.614Z,93.10
2019-05-12T21:54:39.566Z,93.50
2019-05-12T21:57:46.636Z,93.50
2019-05-12T22:01:04.235Z,93.70
2019-05-12T22:04:19.809Z,93.80
2019-05-12T22:07:29.502Z,94.10
2019-05-12T22:10:38.906Z,94.20
2019-05-12T22:13:56.201Z,94.50
2019-05-12T22:17:09.123Z,94.00
2019-05-12T22:20:29.133Z,94.10
2019-05-12T22:23:44.564Z,94.40
2019-05-12T22:26:47.951Z,94.30
2019-05-12T22:29:56.651Z,94.60
2019-05-12T22:33:10.427Z,94.60
2019-05-12T22:36:29.801Z,94.80
2019-05-12T22:39:36.405Z,94.80
2019-05-12T22:42:59.365Z,95.10
2019-05-12T22:46:05.605Z,95.10
2019-05-12T22:49:16.895Z,95.10
2019-05-12T22:52:23.877Z,95.10
2019-05-12T22:55:35.798Z,95.10
2019-05-12T22:59:00.159Z,95.20
2019-05-12T23:02:04.446Z,95.60
2019-05-12T23:05:19.049Z,95.50
2019-05-12T23:08:24.641Z,95.50
2019-05-12T23:11:37.686Z,95.10
2019-05-12T23:15:02.692Z,95.40
2019-05-12T23:18:05.020Z,95.60
2019-05-12T23:21:17.588Z,95.80
2019-05-12T23:24:24.397Z,95.70
2019-05-12T23:27:33.440Z,95.80
2019-05-12T23:30:48.428Z,96.10
2019-05-12T23:33:54.504Z,96.10
2019-05-12T23:37:04.011Z,96.10
2019-05-12T23:40:23.573Z,96.20
2019-05-12T23:43:34.097Z,96.00
2019-05-12T23:46:43.768Z,96.00
2019-05-12T23:49:53.196Z,96.80
2019-05-12T23:53:03.779Z,96.90
2019-05-12T23:56:22.224Z,96.80
2019-05-12T23:59:33.265Z,97.20
